sensor_id;sensor_type;location;lat;lon;timestamp;P1;durP1;ratioP1;P2;durP2;ratioP2
31438;SDS011;18062;48.872;9.220;2024-01-15T00:00:41;10.17;;;4.93;;
31438;SDS011;18062;48.872;9.220;2024-01-15T00:03:07;12.63;;;5.17;;
31438;SDS011;18062;48.872;9.220;2024-01-15T00:05:34;8.43;;;4.93;;
31438;SDS011;18062;48.872;9.220;2024-01-15T00:08:01;14.07;;;5.03;;
31438;SDS011;18062;48.872;9.220;2024-01-15T00:10:27;15.77;;;5.97;;
31438;SDS011;18062;48.872;9.220;2024-01-15T00:12:53;13.77;;;4.30;;
31438;SDS011;18062;48.872;9.220;2024-01-15T00:15:19;15.70;;;5.00;;
31438;SDS011;18062;48.872;9.220;2024-01-15T00:17:45;9.33;;;3.57;;
31438;SDS011;18062;48.872;9.220;2024-01-15T00:20:11;9.53;;;2.67;;
31438;SDS011;18062;48.872;9.220;2024-01-15T00:22:37;13.13;;;5.47;;
31438;SDS011;18062;48.872;9.220;2024-01-15T00:25:03;9.57;;;3.70;;
31438;SDS011;18062;48.872;9.220;2024-01-15T00:27:29;11.93;;;4.47;;
31438;SDS011;18062;48.872;9.220;2024-01-15T00:29:55;16.40;;;4.60;;
31438;SDS011;18062;48.872;9.220;2024-01-15T00:32:21;10.00;;;3.70;;
31438;SDS011;18062;48.872;9.220;2024-01-15T00:34:48;9.30;;;4.87;;
31438;SDS011;18062;48.872;9.220;2024-01-15T00:37:14;8.93;;;4.03;;
31438;SDS011;18062;48.872;9.220;2024-01-15T00:39:40;11.87;;;3.77;;
31438;SDS011;18062;48.872;9.220;2024-01-15T00:42:07;3.97;;;3.23;;
31438;SDS011;18062;48.872;9.220;2024-01-15T00:44:33;8.13;;;3.83;;
31438;SDS011;18062;48.872;9.220;2024-01-15T00:46:59;11.50;;;4.93;;
31438;SDS011;18062;48.872;9.220;2024-01-15T00:49:26;5.37;;;3.37;;
31438;SDS011;18062;48.872;9.220;2024-01-15T00:51:52;8.43;;;3.00;;
31438;SDS011;18062;48.872;9.220;2024-01-15T00:54:18;5.77;;;3.07;;
31438;SDS011;18062;48.872;9.220;2024-01-15T00:56:44;3.83;;;2.97;;
31438;SDS011;18062;48.872;9.220;2024-01-15T00:59:11;12.27;;;4.33;;
31438;SDS011;18062;48.872;9.220;2024-01-15T01:01:39;11.20;;;4.17;;
31438;SDS011;18062;48.872;9.220;2024-01-15T01:04:08;11.73;;;4.50;;
31438;SDS011;18062;48.872;9.220;2024-01-15T01:06:34;7.30;;;4.07;;
31438;SDS011;18062;48.872;9.220;2024-01-15T01:09:00;18.10;;;6.87;;
31438;SDS011;18062;48.872;9.220;2024-01-15T01:11:26;6.50;;;3.80;;
31438;SDS011;18062;48.872;9.220;2024-01-15T01:13:52;6.23;;;3.67;;
31438;SDS011;18062;48.872;9.220;2024-01-15T01:16:18;11.53;;;4.10;;
31438;SDS011;18062;48.872;9.220;2024-01-15T01:18:44;8.23;;;3.70;;
31438;SDS011;18062;48.872;9.220;2024-01-15T01:21:10;15.57;;;5.03;;
31438;SDS011;18062;48.872;9.220;2024-01-15T01:23:36;10.53;;;4.30;;
31438;SDS011;18062;48.872;9.220;2024-01-15T01:26:02;14.17;;;4.60;;
31438;SDS011;18062;48.872;9.220;2024-01-15T01:28:28;18.80;;;5.83;;
31438;SDS011;18062;48.872;9.220;2024-01-15T01:30:54;25.43;;;8.40;;
31438;SDS011;18062;48.872;9.220;2024-01-15T01:33:20;15.80;;;7.20;;
31438;SDS011;18062;48.872;9.220;2024-01-15T01:35:47;19.07;;;6.47;;
31438;SDS011;18062;48.872;9.220;2024-01-15T01:38:13;12.13;;;4.90;;
31438;SDS011;18062;48.872;9.220;2024-01-15T01:40:39;14.80;;;5.67;;
31438;SDS011;18062;48.872;9.220;2024-01-15T01:43:05;14.50;;;5.20;;
31438;SDS011;18062;48.872;9.220;2024-01-15T01:45:31;8.33;;;4.10;;
31438;SDS011;18062;48.872;9.220;2024-01-15T01:47:57;16.73;;;5.13;;
31438;SDS011;18062;48.872;9.220;2024-01-15T01:50:23;10.60;;;4.57;;
31438;SDS011;18062;48.872;9.220;2024-01-15T01:52:49;10.60;;;4.53;;
31438;SDS011;18062;48.872;9.220;2024-01-15T01:55:16;9.23;;;4.20;;
31438;SDS011;18062;48.872;9.220;2024-01-15T01:57:42;8.90;;;4.73;;
31438;SDS011;18062;48.872;9.220;2024-01-15T02:00:08;9.77;;;4.90;;
31438;SDS011;18062;48.872;9.220;2024-01-15T02:02:34;13.70;;;5.17;;
31438;SDS011;18062;48.872;9.220;2024-01-15T02:05:01;13.83;;;4.87;;
31438;SDS011;18062;48.872;9.220;2024-01-15T02:07:29;14.67;;;4.83;;
31438;SDS011;18062;48.872;9.220;2024-01-15T02:09:56;9.20;;;4.07;;
31438;SDS011;18062;48.872;9.220;2024-01-15T02:12:22;8.80;;;4.57;;
31438;SDS011;18062;48.872;9.220;2024-01-15T02:14:48;10.50;;;4.03;;
31438;SDS011;18062;48.872;9.220;2024-01-15T02:17:14;8.30;;;3.93;;
31438;SDS011;18062;48.872;9.220;2024-01-15T02:19:40;8.07;;;4.43;;
31438;SDS011;18062;48.872;9.220;2024-01-15T02:22:06;12.17;;;4.93;;
31438;SDS011;18062;48.872;9.220;2024-01-15T02:24:32;11.53;;;3.93;;
31438;SDS011;18062;48.872;9.220;2024-01-15T02:26:59;11.73;;;4.23;;
31438;SDS011;18062;48.872;9.220;2024-01-15T02:29:26;12.53;;;4.83;;
31438;SDS011;18062;48.872;9.220;2024-01-15T02:31:53;11.43;;;4.03;;
31438;SDS011;18062;48.872;9.220;2024-01-15T02:34:19;10.80;;;4.33;;
31438;SDS011;18062;48.872;9.220;2024-01-15T02:36:45;10.77;;;4.83;;
31438;SDS011;18062;48.872;9.220;2024-01-15T02:39:11;9.33;;;4.53;;
31438;SDS011;18062;48.872;9.220;2024-01-15T02:41:37;7.90;;;4.83;;
31438;SDS011;18062;48.872;9.220;2024-01-15T02:44:03;11.57;;;4.23;;
31438;SDS011;18062;48.872;9.220;2024-01-15T02:46:29;8.17;;;3.73;;
31438;SDS011;18062;48.872;9.220;2024-01-15T02:48:55;8.23;;;4.07;;
31438;SDS011;18062;48.872;9.220;2024-01-15T02:51:21;6.97;;;3.47;;
31438;SDS011;18062;48.872;9.220;2024-01-15T02:53:49;8.43;;;3.37;;
31438;SDS011;18062;48.872;9.220;2024-01-15T02:56:15;9.93;;;4.43;;
31438;SDS011;18062;48.872;9.220;2024-01-15T02:58:42;9.10;;;3.73;;
31438;SDS011;18062;48.872;9.220;2024-01-15T03:01:08;7.87;;;4.37;;
31438;SDS011;18062;48.872;9.220;2024-01-15T03:03:34;12.17;;;4.27;;
31438;SDS011;18062;48.872;9.220;2024-01-15T03:06:01;7.83;;;3.40;;
31438;SDS011;18062;48.872;9.220;2024-01-15T03:08:27;8.67;;;3.80;;
31438;SDS011;18062;48.872;9.220;2024-01-15T03:10:54;6.43;;;4.03;;
31438;SDS011;18062;48.872;9.220;2024-01-15T03:13:20;8.80;;;4.37;;
31438;SDS011;18062;48.872;9.220;2024-01-15T03:15:46;10.23;;;4.07;;
31438;SDS011;18062;48.872;9.220;2024-01-15T03:18:12;7.83;;;3.53;;
31438;SDS011;18062;48.872;9.220;2024-01-15T03:20:38;12.87;;;3.73;;
31438;SDS011;18062;48.872;9.220;2024-01-15T03:23:04;7.50;;;3.73;;
31438;SDS011;18062;48.872;9.220;2024-01-15T03:25:30;9.03;;;3.93;;
31438;SDS011;18062;48.872;9.220;2024-01-15T03:27:56;5.23;;;2.87;;
31438;SDS011;18062;48.872;9.220;2024-01-15T03:30:22;8.23;;;3.17;;
31438;SDS011;18062;48.872;9.220;2024-01-15T03:32:48;7.87;;;3.53;;
31438;SDS011;18062;48.872;9.220;2024-01-15T03:35:15;7.63;;;3.43;;
31438;SDS011;18062;48.872;9.220;2024-01-15T03:37:41;7.43;;;3.57;;
31438;SDS011;18062;48.872;9.220;2024-01-15T03:40:07;7.83;;;3.27;;
31438;SDS011;18062;48.872;9.220;2024-01-15T03:42:34;8.13;;;4.13;;
31438;SDS011;18062;48.872;9.220;2024-01-15T03:45:00;7.33;;;3.30;;
31438;SDS011;18062;48.872;9.220;2024-01-15T03:47:27;10.13;;;4.10;;
31438;SDS011;18062;48.872;9.220;2024-01-15T03:49:53;7.77;;;3.37;;
31438;SDS011;18062;48.872;9.220;2024-01-15T03:52:19;9.47;;;3.60;;
31438;SDS011;18062;48.872;9.220;2024-01-15T03:54:47;6.30;;;4.00;;
31438;SDS011;18062;48.872;9.220;2024-01-15T03:57:13;12.63;;;4.13;;
31438;SDS011;18062;48.872;9.220;2024-01-15T03:59:40;9.27;;;3.20;;
31438;SDS011;18062;48.872;9.220;2024-01-15T04:02:12;7.43;;;3.10;;
31438;SDS011;18062;48.872;9.220;2024-01-15T04:04:42;11.93;;;5.13;;
31438;SDS011;18062;48.872;9.220;2024-01-15T04:07:11;7.23;;;3.70;;
31438;SDS011;18062;48.872;9.220;2024-01-15T04:09:37;8.73;;;4.03;;
31438;SDS011;18062;48.872;9.220;2024-01-15T04:12:03;9.70;;;3.40;;
31438;SDS011;18062;48.872;9.220;2024-01-15T04:14:29;10.47;;;3.67;;
31438;SDS011;18062;48.872;9.220;2024-01-15T04:16:55;11.10;;;4.17;;
31438;SDS011;18062;48.872;9.220;2024-01-15T04:19:21;10.33;;;3.70;;
31438;SDS011;18062;48.872;9.220;2024-01-15T04:21:48;11.67;;;4.07;;
31438;SDS011;18062;48.872;9.220;2024-01-15T04:24:14;9.83;;;3.97;;
31438;SDS011;18062;48.872;9.220;2024-01-15T04:26:42;7.20;;;3.80;;
31438;SDS011;18062;48.872;9.220;2024-01-15T04:29:08;4.80;;;2.93;;
31438;SDS011;18062;48.872;9.220;2024-01-15T04:31:35;9.50;;;3.97;;
31438;SDS011;18062;48.872;9.220;2024-01-15T04:34:01;5.40;;;3.23;;
31438;SDS011;18062;48.872;9.220;2024-01-15T04:36:27;7.07;;;3.37;;
31438;SDS011;18062;48.872;9.220;2024-01-15T04:38:53;10.87;;;3.47;;
31438;SDS011;18062;48.872;9.220;2024-01-15T04:41:19;5.70;;;3.53;;
31438;SDS011;18062;48.872;9.220;2024-01-15T04:43:45;7.83;;;3.97;;
31438;SDS011;18062;48.872;9.220;2024-01-15T04:46:10;6.67;;;3.47;;
31438;SDS011;18062;48.872;9.220;2024-01-15T04:48:37;9.30;;;3.57;;
31438;SDS011;18062;48.872;9.220;2024-01-15T04:51:04;7.13;;;3.67;;
31438;SDS011;18062;48.872;9.220;2024-01-15T04:53:30;9.20;;;3.30;;
31438;SDS011;18062;48.872;9.220;2024-01-15T04:55:56;5.27;;;3.30;;
31438;SDS011;18062;48.872;9.220;2024-01-15T04:58:22;9.10;;;3.20;;
31438;SDS011;18062;48.872;9.220;2024-01-15T05:00:50;6.27;;;2.83;;
31438;SDS011;18062;48.872;9.220;2024-01-15T05:03:16;8.57;;;3.40;;
31438;SDS011;18062;48.872;9.220;2024-01-15T05:05:43;8.27;;;3.63;;
31438;SDS011;18062;48.872;9.220;2024-01-15T05:08:09;5.90;;;3.17;;
31438;SDS011;18062;48.872;9.220;2024-01-15T05:10:35;7.03;;;3.27;;
31438;SDS011;18062;48.872;9.220;2024-01-15T05:13:01;6.67;;;3.37;;
31438;SDS011;18062;48.872;9.220;2024-01-15T05:15:27;6.73;;;3.10;;
31438;SDS011;18062;48.872;9.220;2024-01-15T05:17:54;8.17;;;4.03;;
31438;SDS011;18062;48.872;9.220;2024-01-15T05:20:20;9.53;;;3.70;;
31438;SDS011;18062;48.872;9.220;2024-01-15T05:22:47;9.07;;;3.30;;
31438;SDS011;18062;48.872;9.220;2024-01-15T05:25:13;8.73;;;3.70;;
31438;SDS011;18062;48.872;9.220;2024-01-15T05:27:39;6.40;;;3.40;;
31438;SDS011;18062;48.872;9.220;2024-01-15T05:30:05;5.67;;;3.23;;
31438;SDS011;18062;48.872;9.220;2024-01-15T05:32:31;10.33;;;4.00;;
31438;SDS011;18062;48.872;9.220;2024-01-15T05:34:57;7.43;;;3.27;;
31438;SDS011;18062;48.872;9.220;2024-01-15T05:37:23;7.63;;;3.60;;
31438;SDS011;18062;48.872;9.220;2024-01-15T05:39:49;6.30;;;2.83;;
31438;SDS011;18062;48.872;9.220;2024-01-15T05:42:16;10.52;;;4.63;;
31438;SDS011;18062;48.872;9.220;2024-01-15T05:44:42;9.70;;;4.23;;
31438;SDS011;18062;48.872;9.220;2024-01-15T05:47:08;7.50;;;4.10;;
31438;SDS011;18062;48.872;9.220;2024-01-15T05:49:34;7.80;;;3.60;;
31438;SDS011;18062;48.872;9.220;2024-01-15T05:52:00;8.63;;;3.00;;
31438;SDS011;18062;48.872;9.220;2024-01-15T05:54:26;5.97;;;3.77;;
31438;SDS011;18062;48.872;9.220;2024-01-15T05:56:52;6.63;;;3.57;;
31438;SDS011;18062;48.872;9.220;2024-01-15T05:59:18;5.40;;;3.43;;
31438;SDS011;18062;48.872;9.220;2024-01-15T06:01:44;7.57;;;3.47;;
31438;SDS011;18062;48.872;9.220;2024-01-15T06:04:10;10.03;;;3.67;;
31438;SDS011;18062;48.872;9.220;2024-01-15T06:06:36;6.93;;;3.40;;
31438;SDS011;18062;48.872;9.220;2024-01-15T06:09:02;6.33;;;3.30;;
31438;SDS011;18062;48.872;9.220;2024-01-15T06:11:31;5.63;;;3.20;;
31438;SDS011;18062;48.872;9.220;2024-01-15T06:13:57;6.73;;;2.93;;
31438;SDS011;18062;48.872;9.220;2024-01-15T06:16:25;6.87;;;3.30;;
31438;SDS011;18062;48.872;9.220;2024-01-15T06:18:51;7.13;;;3.20;;
31438;SDS011;18062;48.872;9.220;2024-01-15T06:21:17;6.40;;;2.83;;
31438;SDS011;18062;48.872;9.220;2024-01-15T06:23:43;7.20;;;2.70;;
31438;SDS011;18062;48.872;9.220;2024-01-15T06:26:11;5.93;;;2.87;;
31438;SDS011;18062;48.872;9.220;2024-01-15T06:28:37;5.00;;;3.13;;
31438;SDS011;18062;48.872;9.220;2024-01-15T06:31:03;7.93;;;3.07;;
31438;SDS011;18062;48.872;9.220;2024-01-15T06:33:30;6.30;;;2.77;;
31438;SDS011;18062;48.872;9.220;2024-01-15T06:35:56;5.43;;;2.97;;
31438;SDS011;18062;48.872;9.220;2024-01-15T06:38:22;6.23;;;3.40;;
31438;SDS011;18062;48.872;9.220;2024-01-15T06:40:50;6.33;;;3.40;;
31438;SDS011;18062;48.872;9.220;2024-01-15T06:43:17;5.70;;;2.87;;
31438;SDS011;18062;48.872;9.220;2024-01-15T06:45:43;7.73;;;3.27;;
31438;SDS011;18062;48.872;9.220;2024-01-15T06:48:09;10.23;;;3.53;;
31438;SDS011;18062;48.872;9.220;2024-01-15T06:50:39;6.33;;;2.97;;
31438;SDS011;18062;48.872;9.220;2024-01-15T06:53:05;5.53;;;3.10;;
31438;SDS011;18062;48.872;9.220;2024-01-15T06:55:31;6.37;;;3.60;;
31438;SDS011;18062;48.872;9.220;2024-01-15T06:57:57;6.17;;;3.70;;
31438;SDS011;18062;48.872;9.220;2024-01-15T07:00:23;7.30;;;4.43;;
31438;SDS011;18062;48.872;9.220;2024-01-15T07:02:49;7.27;;;3.67;;
31438;SDS011;18062;48.872;9.220;2024-01-15T07:05:15;5.53;;;3.33;;
31438;SDS011;18062;48.872;9.220;2024-01-15T07:07:41;10.83;;;4.07;;
31438;SDS011;18062;48.872;9.220;2024-01-15T07:10:07;5.10;;;3.27;;
31438;SDS011;18062;48.872;9.220;2024-01-15T07:12:33;7.80;;;3.53;;
31438;SDS011;18062;48.872;9.220;2024-01-15T07:14:59;5.70;;;3.13;;
31438;SDS011;18062;48.872;9.220;2024-01-15T07:17:25;6.70;;;2.90;;
31438;SDS011;18062;48.872;9.220;2024-01-15T07:19:51;6.27;;;3.03;;
31438;SDS011;18062;48.872;9.220;2024-01-15T07:22:17;5.33;;;2.77;;
31438;SDS011;18062;48.872;9.220;2024-01-15T07:24:45;7.17;;;3.37;;
31438;SDS011;18062;48.872;9.220;2024-01-15T07:27:11;7.33;;;3.00;;
31438;SDS011;18062;48.872;9.220;2024-01-15T07:29:37;6.97;;;3.30;;
31438;SDS011;18062;48.872;9.220;2024-01-15T07:32:04;7.03;;;3.07;;
31438;SDS011;18062;48.872;9.220;2024-01-15T07:34:30;7.00;;;4.07;;
31438;SDS011;18062;48.872;9.220;2024-01-15T07:36:57;5.93;;;3.60;;
31438;SDS011;18062;48.872;9.220;2024-01-15T07:39:23;8.13;;;3.50;;
31438;SDS011;18062;48.872;9.220;2024-01-15T07:41:50;7.47;;;3.47;;
31438;SDS011;18062;48.872;9.220;2024-01-15T07:44:18;6.90;;;3.90;;
31438;SDS011;18062;48.872;9.220;2024-01-15T07:46:44;9.03;;;4.00;;
31438;SDS011;18062;48.872;9.220;2024-01-15T07:49:11;6.83;;;3.00;;
31438;SDS011;18062;48.872;9.220;2024-01-15T07:51:38;11.13;;;3.50;;
31438;SDS011;18062;48.872;9.220;2024-01-15T07:54:11;6.77;;;3.47;;
31438;SDS011;18062;48.872;9.220;2024-01-15T07:56:52;7.43;;;3.33;;
31438;SDS011;18062;48.872;9.220;2024-01-15T07:59:18;9.73;;;3.60;;
31438;SDS011;18062;48.872;9.220;2024-01-15T08:01:44;8.07;;;3.87;;
31438;SDS011;18062;48.872;9.220;2024-01-15T08:04:10;5.40;;;3.13;;
31438;SDS011;18062;48.872;9.220;2024-01-15T08:06:38;5.40;;;3.20;;
31438;SDS011;18062;48.872;9.220;2024-01-15T08:09:04;6.93;;;3.37;;
31438;SDS011;18062;48.872;9.220;2024-01-15T08:11:30;6.73;;;3.37;;
31438;SDS011;18062;48.872;9.220;2024-01-15T08:13:56;6.07;;;3.33;;
31438;SDS011;18062;48.872;9.220;2024-01-15T08:16:22;7.10;;;3.40;;
31438;SDS011;18062;48.872;9.220;2024-01-15T08:18:50;6.17;;;3.50;;
31438;SDS011;18062;48.872;9.220;2024-01-15T08:21:16;6.40;;;3.33;;
31438;SDS011;18062;48.872;9.220;2024-01-15T08:23:42;7.27;;;3.63;;
31438;SDS011;18062;48.872;9.220;2024-01-15T08:26:08;7.63;;;3.83;;
31438;SDS011;18062;48.872;9.220;2024-01-15T08:28:34;7.70;;;3.90;;
31438;SDS011;18062;48.872;9.220;2024-01-15T08:31:01;7.77;;;3.60;;
31438;SDS011;18062;48.872;9.220;2024-01-15T08:33:28;6.07;;;3.27;;
31438;SDS011;18062;48.872;9.220;2024-01-15T08:35:54;5.50;;;2.60;;
31438;SDS011;18062;48.872;9.220;2024-01-15T08:38:20;5.83;;;3.33;;
31438;SDS011;18062;48.872;9.220;2024-01-15T08:40:48;6.90;;;3.47;;
31438;SDS011;18062;48.872;9.220;2024-01-15T08:43:14;5.83;;;3.10;;
31438;SDS011;18062;48.872;9.220;2024-01-15T08:45:40;6.70;;;3.27;;
31438;SDS011;18062;48.872;9.220;2024-01-15T08:48:06;5.47;;;2.83;;
31438;SDS011;18062;48.872;9.220;2024-01-15T08:50:32;7.77;;;3.57;;
31438;SDS011;18062;48.872;9.220;2024-01-15T08:52:59;4.47;;;2.93;;
31438;SDS011;18062;48.872;9.220;2024-01-15T08:55:25;5.50;;;2.80;;
31438;SDS011;18062;48.872;9.220;2024-01-15T08:57:51;6.77;;;2.73;;
31438;SDS011;18062;48.872;9.220;2024-01-15T09:00:17;4.80;;;3.23;;
31438;SDS011;18062;48.872;9.220;2024-01-15T09:02:43;6.00;;;2.90;;
31438;SDS011;18062;48.872;9.220;2024-01-15T09:05:10;6.30;;;3.00;;
31438;SDS011;18062;48.872;9.220;2024-01-15T09:07:36;5.30;;;2.97;;
31438;SDS011;18062;48.872;9.220;2024-01-15T09:10:02;4.27;;;2.57;;
31438;SDS011;18062;48.872;9.220;2024-01-15T09:12:28;6.07;;;3.20;;
31438;SDS011;18062;48.872;9.220;2024-01-15T09:14:54;5.37;;;2.90;;
31438;SDS011;18062;48.872;9.220;2024-01-15T09:17:21;4.87;;;2.53;;
31438;SDS011;18062;48.872;9.220;2024-01-15T09:19:50;6.63;;;3.00;;
31438;SDS011;18062;48.872;9.220;2024-01-15T09:22:16;8.60;;;3.07;;
31438;SDS011;18062;48.872;9.220;2024-01-15T09:24:45;3.23;;;2.40;;
31438;SDS011;18062;48.872;9.220;2024-01-15T09:27:11;6.20;;;2.80;;
31438;SDS011;18062;48.872;9.220;2024-01-15T09:29:37;4.90;;;2.63;;
31438;SDS011;18062;48.872;9.220;2024-01-15T09:32:05;5.10;;;2.60;;
31438;SDS011;18062;48.872;9.220;2024-01-15T09:34:32;5.43;;;2.23;;
31438;SDS011;18062;48.872;9.220;2024-01-15T09:36:58;5.30;;;2.53;;
31438;SDS011;18062;48.872;9.220;2024-01-15T09:39:29;6.17;;;2.70;;
31438;SDS011;18062;48.872;9.220;2024-01-15T09:41:55;4.23;;;2.27;;
31438;SDS011;18062;48.872;9.220;2024-01-15T09:44:22;5.70;;;2.40;;
31438;SDS011;18062;48.872;9.220;2024-01-15T09:46:48;4.20;;;2.80;;
31438;SDS011;18062;48.872;9.220;2024-01-15T09:49:15;4.47;;;3.17;;
31438;SDS011;18062;48.872;9.220;2024-01-15T09:51:42;4.73;;;2.70;;
31438;SDS011;18062;48.872;9.220;2024-01-15T09:54:08;4.90;;;2.30;;
31438;SDS011;18062;48.872;9.220;2024-01-15T09:56:35;4.77;;;2.30;;
31438;SDS011;18062;48.872;9.220;2024-01-15T09:59:02;3.23;;;2.33;;
31438;SDS011;18062;48.872;9.220;2024-01-15T10:01:31;5.30;;;2.37;;
31438;SDS011;18062;48.872;9.220;2024-01-15T10:03:57;6.00;;;2.60;;
31438;SDS011;18062;48.872;9.220;2024-01-15T10:06:23;4.53;;;2.33;;
31438;SDS011;18062;48.872;9.220;2024-01-15T10:08:56;4.40;;;2.30;;
31438;SDS011;18062;48.872;9.220;2024-01-15T10:11:23;3.73;;;2.53;;
31438;SDS011;18062;48.872;9.220;2024-01-15T10:13:49;3.63;;;2.37;;
31438;SDS011;18062;48.872;9.220;2024-01-15T10:16:18;3.57;;;2.20;;
31438;SDS011;18062;48.872;9.220;2024-01-15T10:18:44;4.53;;;2.53;;
31438;SDS011;18062;48.872;9.220;2024-01-15T10:21:10;3.83;;;2.10;;
31438;SDS011;18062;48.872;9.220;2024-01-15T10:23:36;4.80;;;2.40;;
31438;SDS011;18062;48.872;9.220;2024-01-15T10:26:02;7.07;;;2.40;;
31438;SDS011;18062;48.872;9.220;2024-01-15T10:28:29;4.03;;;2.60;;
31438;SDS011;18062;48.872;9.220;2024-01-15T10:30:57;4.43;;;2.10;;
31438;SDS011;18062;48.872;9.220;2024-01-15T10:33:26;5.77;;;2.57;;
31438;SDS011;18062;48.872;9.220;2024-01-15T10:35:56;5.27;;;2.43;;
31438;SDS011;18062;48.872;9.220;2024-01-15T10:38:23;4.83;;;2.20;;
31438;SDS011;18062;48.872;9.220;2024-01-15T10:40:53;4.13;;;2.70;;
31438;SDS011;18062;48.872;9.220;2024-01-15T10:43:20;4.27;;;2.30;;
31438;SDS011;18062;48.872;9.220;2024-01-15T10:45:46;4.83;;;2.10;;
31438;SDS011;18062;48.872;9.220;2024-01-15T10:48:13;4.07;;;2.20;;
31438;SDS011;18062;48.872;9.220;2024-01-15T10:50:39;4.97;;;2.60;;
31438;SDS011;18062;48.872;9.220;2024-01-15T10:53:05;3.47;;;2.10;;
31438;SDS011;18062;48.872;9.220;2024-01-15T10:55:31;3.80;;;2.17;;
31438;SDS011;18062;48.872;9.220;2024-01-15T10:57:59;6.57;;;2.23;;
31438;SDS011;18062;48.872;9.220;2024-01-15T11:00:25;6.47;;;2.40;;
31438;SDS011;18062;48.872;9.220;2024-01-15T11:02:51;5.33;;;2.20;;
31438;SDS011;18062;48.872;9.220;2024-01-15T11:05:21;6.40;;;2.30;;
31438;SDS011;18062;48.872;9.220;2024-01-15T11:07:50;4.27;;;2.23;;
31438;SDS011;18062;48.872;9.220;2024-01-15T11:13:01;10.50;;;2.50;;
31438;SDS011;18062;48.872;9.220;2024-01-15T11:15:27;4.17;;;2.07;;
31438;SDS011;18062;48.872;9.220;2024-01-15T11:17:57;3.77;;;2.30;;
31438;SDS011;18062;48.872;9.220;2024-01-15T11:20:24;3.87;;;2.30;;
31438;SDS011;18062;48.872;9.220;2024-01-15T11:22:50;3.43;;;2.33;;
31438;SDS011;18062;48.872;9.220;2024-01-15T11:25:19;4.23;;;2.40;;
31438;SDS011;18062;48.872;9.220;2024-01-15T11:27:46;4.30;;;2.70;;
31438;SDS011;18062;48.872;9.220;2024-01-15T11:30:16;5.30;;;2.37;;
31438;SDS011;18062;48.872;9.220;2024-01-15T11:32:42;4.83;;;2.87;;
31438;SDS011;18062;48.872;9.220;2024-01-15T11:35:09;4.40;;;2.40;;
31438;SDS011;18062;48.872;9.220;2024-01-15T11:42:49;4.27;;;2.67;;
31438;SDS011;18062;48.872;9.220;2024-01-15T11:45:18;5.13;;;2.63;;
31438;SDS011;18062;48.872;9.220;2024-01-15T11:50:13;7.77;;;2.50;;
31438;SDS011;18062;48.872;9.220;2024-01-15T11:52:40;5.53;;;2.93;;
31438;SDS011;18062;48.872;9.220;2024-01-15T12:00:06;4.37;;;2.70;;
31438;SDS011;18062;48.872;9.220;2024-01-15T12:02:33;6.27;;;3.10;;
31438;SDS011;18062;48.872;9.220;2024-01-15T12:05:00;6.00;;;2.63;;
31438;SDS011;18062;48.872;9.220;2024-01-15T12:07:26;5.27;;;2.87;;
31438;SDS011;18062;48.872;9.220;2024-01-15T12:09:52;8.60;;;3.40;;
31438;SDS011;18062;48.872;9.220;2024-01-15T12:13:04;5.77;;;2.97;;
31438;SDS011;18062;48.872;9.220;2024-01-15T12:15:04;4.47;;;2.80;;
31438;SDS011;18062;48.872;9.220;2024-01-15T12:17:30;10.07;;;4.00;;
31438;SDS011;18062;48.872;9.220;2024-01-15T12:19:56;7.53;;;3.23;;
31438;SDS011;18062;48.872;9.220;2024-01-15T12:22:23;6.20;;;3.30;;
31438;SDS011;18062;48.872;9.220;2024-01-15T12:24:49;6.63;;;3.60;;
31438;SDS011;18062;48.872;9.220;2024-01-15T12:27:15;7.00;;;3.50;;
31438;SDS011;18062;48.872;9.220;2024-01-15T12:29:42;6.90;;;3.43;;
31438;SDS011;18062;48.872;9.220;2024-01-15T12:32:08;7.30;;;3.50;;
31438;SDS011;18062;48.872;9.220;2024-01-15T12:34:34;6.90;;;3.37;;
31438;SDS011;18062;48.872;9.220;2024-01-15T12:37:00;6.83;;;3.77;;
31438;SDS011;18062;48.872;9.220;2024-01-15T12:39:28;7.20;;;3.33;;
31438;SDS011;18062;48.872;9.220;2024-01-15T12:41:55;6.23;;;2.83;;
31438;SDS011;18062;48.872;9.220;2024-01-15T12:44:21;8.73;;;3.13;;
31438;SDS011;18062;48.872;9.220;2024-01-15T12:46:47;3.43;;;2.57;;
31438;SDS011;18062;48.872;9.220;2024-01-15T12:49:13;7.07;;;3.20;;
31438;SDS011;18062;48.872;9.220;2024-01-15T12:51:40;8.00;;;3.77;;
31438;SDS011;18062;48.872;9.220;2024-01-15T12:54:06;5.83;;;3.00;;
31438;SDS011;18062;48.872;9.220;2024-01-15T12:56:32;4.53;;;3.00;;
31438;SDS011;18062;48.872;9.220;2024-01-15T12:58:58;7.40;;;3.00;;
31438;SDS011;18062;48.872;9.220;2024-01-15T13:01:24;5.80;;;3.07;;
31438;SDS011;18062;48.872;9.220;2024-01-15T13:03:50;4.80;;;2.60;;
31438;SDS011;18062;48.872;9.220;2024-01-15T13:06:16;5.97;;;2.70;;
31438;SDS011;18062;48.872;9.220;2024-01-15T13:08:42;3.83;;;2.27;;
31438;SDS011;18062;48.872;9.220;2024-01-15T13:11:08;6.20;;;2.60;;
31438;SDS011;18062;48.872;9.220;2024-01-15T13:13:35;7.57;;;2.63;;
31438;SDS011;18062;48.872;9.220;2024-01-15T13:16:01;9.10;;;2.80;;
31438;SDS011;18062;48.872;9.220;2024-01-15T13:18:27;3.63;;;2.10;;
31438;SDS011;18062;48.872;9.220;2024-01-15T13:20:56;3.27;;;2.00;;
31438;SDS011;18062;48.872;9.220;2024-01-15T13:23:22;4.73;;;2.30;;
31438;SDS011;18062;48.872;9.220;2024-01-15T13:25:48;4.67;;;2.60;;
31438;SDS011;18062;48.872;9.220;2024-01-15T13:28:15;5.87;;;2.40;;
31438;SDS011;18062;48.872;9.220;2024-01-15T13:30:41;5.03;;;2.50;;
31438;SDS011;18062;48.872;9.220;2024-01-15T13:33:08;4.27;;;2.60;;
31438;SDS011;18062;48.872;9.220;2024-01-15T13:35:34;4.10;;;2.23;;
31438;SDS011;18062;48.872;9.220;2024-01-15T13:38:01;3.50;;;1.87;;
31438;SDS011;18062;48.872;9.220;2024-01-15T13:40:33;2.20;;;2.00;;
31438;SDS011;18062;48.872;9.220;2024-01-15T13:42:59;5.20;;;2.50;;
31438;SDS011;18062;48.872;9.220;2024-01-15T13:45:25;3.00;;;2.10;;
31438;SDS011;18062;48.872;9.220;2024-01-15T13:47:51;4.50;;;1.93;;
31438;SDS011;18062;48.872;9.220;2024-01-15T13:50:17;2.70;;;2.07;;
31438;SDS011;18062;48.872;9.220;2024-01-15T13:52:44;3.37;;;2.33;;
31438;SDS011;18062;48.872;9.220;2024-01-15T13:55:10;3.77;;;2.50;;
31438;SDS011;18062;48.872;9.220;2024-01-15T13:57:36;3.73;;;2.33;;
31438;SDS011;18062;48.872;9.220;2024-01-15T14:00:02;5.47;;;2.57;;
31438;SDS011;18062;48.872;9.220;2024-01-15T14:02:34;5.70;;;2.50;;
31438;SDS011;18062;48.872;9.220;2024-01-15T14:05:00;6.17;;;2.73;;
31438;SDS011;18062;48.872;9.220;2024-01-15T14:07:27;3.30;;;2.50;;
31438;SDS011;18062;48.872;9.220;2024-01-15T14:09:53;3.57;;;2.50;;
31438;SDS011;18062;48.872;9.220;2024-01-15T14:12:19;3.50;;;2.50;;
31438;SDS011;18062;48.872;9.220;2024-01-15T14:14:45;3.67;;;2.50;;
31438;SDS011;18062;48.872;9.220;2024-01-15T14:17:11;2.97;;;2.33;;
31438;SDS011;18062;48.872;9.220;2024-01-15T14:19:37;4.90;;;3.00;;
31438;SDS011;18062;48.872;9.220;2024-01-15T14:22:03;6.47;;;3.50;;
31438;SDS011;18062;48.872;9.220;2024-01-15T14:24:29;5.63;;;3.23;;
31438;SDS011;18062;48.872;9.220;2024-01-15T14:26:55;5.10;;;3.40;;
31438;SDS011;18062;48.872;9.220;2024-01-15T14:29:22;4.80;;;3.03;;
31438;SDS011;18062;48.872;9.220;2024-01-15T14:31:50;5.70;;;3.47;;
31438;SDS011;18062;48.872;9.220;2024-01-15T14:34:16;5.30;;;3.07;;
31438;SDS011;18062;48.872;9.220;2024-01-15T14:36:43;5.43;;;3.37;;
31438;SDS011;18062;48.872;9.220;2024-01-15T14:39:09;6.23;;;3.50;;
31438;SDS011;18062;48.872;9.220;2024-01-15T14:41:35;4.50;;;3.50;;
31438;SDS011;18062;48.872;9.220;2024-01-15T14:44:01;5.03;;;2.93;;
31438;SDS011;18062;48.872;9.220;2024-01-15T14:46:28;3.90;;;3.03;;
31438;SDS011;18062;48.872;9.220;2024-01-15T14:48:55;5.43;;;4.10;;
31438;SDS011;18062;48.872;9.220;2024-01-15T14:51:20;7.10;;;4.17;;
31438;SDS011;18062;48.872;9.220;2024-01-15T14:53:46;8.17;;;4.07;;
31438;SDS011;18062;48.872;9.220;2024-01-15T14:56:12;5.93;;;3.80;;